Risingdale, Massachusetts
Current Conditions -  °F | °C
As of 5:54 AM on Friday 19 Dec 2014 (Local Time) from KPSF Reporting Station
Overcast Overcast  
Wind Chill: -9°   Ceiling: 2200
Heat Index: -3°   Visibility: 10mi
Dew Point: -7°   Wind: 15mph
Humidity: 75%   Direction: 290°WNW
Pressure: 29.89"   Gusts: 23mph
Location:  42.1779°N, 73.3332°W
Report Text: KPSF 191054Z AUTO 29013G20KT 10SM BKN022 OVC033 M03/M07 A2989 RMK AO2 SLP135 T10281067
Loading
Personal Weather Stations






























Interactive Weather Map New forecast layout! Learn more

10-Day Weather Forecast

Advertisements
Track Severe Weather on mobile